createdAt,value
2022-12-13T00:02:26.043Z,99481.78
2022-12-13T00:05:29.309Z,99484.41
2022-12-13T00:08:32.476Z,99491.22
2022-12-13T00:11:36.340Z,99484.84
2022-12-13T00:14:39.353Z,99477.47
2022-12-13T00:17:42.633Z,99474.81
2022-12-13T00:20:45.547Z,99476.25
2022-12-13T00:23:49.196Z,99471.97
2022-12-13T00:26:54.974Z,99477.19
2022-12-13T00:29:58.450Z,99473.22
2022-12-13T00:33:01.417Z,99481.75
2022-12-13T00:36:05.529Z,99485.13
2022-12-13T00:39:12.931Z,99484.41
2022-12-13T00:42:16.130Z,99492.72
2022-12-13T00:45:19.070Z,99488.00
2022-12-13T00:48:24.058Z,99493.81
2022-12-13T00:51:30.785Z,99487.34
2022-12-13T00:54:34.153Z,99504.75
2022-12-13T00:57:37.072Z,99503.88
2022-12-13T01:00:40.275Z,99506.47
2022-12-13T01:03:43.611Z,99507.72
2022-12-13T01:06:50.048Z,99513.75
2022-12-13T01:09:53.116Z,99510.81
2022-12-13T01:12:56.485Z,99514.25
2022-12-13T01:16:02.619Z,99505.47
2022-12-13T01:19:05.897Z,99511.50
2022-12-13T01:22:08.891Z,99509.31
2022-12-13T01:25:12.198Z,99515.59
2022-12-13T01:28:15.379Z,99512.94
2022-12-13T01:31:20.321Z,99510.31
2022-12-13T01:34:26.460Z,99505.94
2022-12-13T01:37:30.035Z,99504.19
2022-12-13T01:40:32.948Z,99515.66
2022-12-13T01:43:41.935Z,99519.28
2022-12-13T01:46:44.935Z,99522.00
2022-12-13T01:49:49.343Z,99519.88
2022-12-13T01:52:54.091Z,99514.16
2022-12-13T01:56:01.313Z,99523.63
2022-12-13T01:59:05.649Z,99527.84
2022-12-13T02:02:11.151Z,99527.34
2022-12-13T02:05:16.848Z,99527.47
2022-12-13T02:08:20.337Z,99535.06
2022-12-13T02:11:24.124Z,99531.91
2022-12-13T02:14:27.065Z,99535.03
2022-12-13T02:18:29.449Z,99530.56
2022-12-13T02:22:00.211Z,99535.41
2022-12-13T02:25:36.488Z,99547.75
2022-12-13T02:28:39.297Z,99548.59
2022-12-13T02:32:01.037Z,99544.66
2022-12-13T02:35:10.848Z,99547.25
2022-12-13T02:38:46.012Z,99547.25
2022-12-13T02:41:51.485Z,99552.94
2022-12-13T02:45:08.106Z,99546.72
2022-12-13T02:48:14.300Z,99547.53
2022-12-13T02:51:18.034Z,99545.31
2022-12-13T02:54:21.160Z,99539.56
2022-12-13T02:57:42.026Z,99540.28
2022-12-13T03:01:28.646Z,99547.31
2022-12-13T03:05:23.677Z,99536.22
2022-12-13T03:08:32.051Z,99550.16
2022-12-13T03:12:29.367Z,99548.88
2022-12-13T03:15:44.122Z,99550.97
2022-12-13T03:18:50.536Z,99540.41
2022-12-13T03:21:53.445Z,99543.91
2022-12-13T03:24:56.844Z,99546.00
2022-12-13T03:28:02.105Z,99542.63
2022-12-13T03:31:06.175Z,99546.50
2022-12-13T03:34:09.085Z,99549.41
2022-12-13T03:37:12.703Z,99545.16
2022-12-13T03:40:15.915Z,99549.50
2022-12-13T03:43:22.407Z,99547.69
2022-12-13T03:46:25.939Z,99543.19
2022-12-13T03:49:35.331Z,99545.38
2022-12-13T03:52:39.127Z,99551.00
2022-12-13T03:55:42.382Z,99540.47
2022-12-13T03:58:45.379Z,99536.00
2022-12-13T04:01:49.221Z,99539.28
2022-12-13T04:04:54.347Z,99542.78
2022-12-13T04:08:04.668Z,99536.69
2022-12-13T04:11:43.560Z,99542.31
2022-12-13T04:14:46.696Z,99546.31
2022-12-13T04:17:51.237Z,99553.19
2022-12-13T04:20:54.403Z,99556.88
2022-12-13T04:24:00.874Z,99551.59
2022-12-13T04:27:05.119Z,99545.91
2022-12-13T04:30:10.251Z,99553.50
2022-12-13T04:33:13.451Z,99554.84
2022-12-13T04:36:31.114Z,99554.69
2022-12-13T04:39:35.821Z,99552.06
2022-12-13T04:42:39.081Z,99551.06
2022-12-13T04:45:42.568Z,99557.13
2022-12-13T04:48:45.986Z,99563.72
2022-12-13T04:51:50.027Z,99555.56
2022-12-13T04:54:55.371Z,99557.22
2022-12-13T04:57:59.069Z,99561.41
2022-12-13T05:01:02.823Z,99551.84
2022-12-13T05:04:05.878Z,99559.53
2022-12-13T05:07:09.753Z,99557.97
2022-12-13T05:10:34.307Z,99559.78
2022-12-13T05:13:37.670Z,99558.53
2022-12-13T05:16:40.915Z,99554.81
2022-12-13T05:19:44.176Z,99557.50
2022-12-13T05:22:47.047Z,99563.09
2022-12-13T05:25:53.272Z,99554.38
2022-12-13T05:28:57.902Z,99559.37
2022-12-13T05:32:01.267Z,99548.31
2022-12-13T05:35:04.796Z,99541.41
2022-12-13T05:38:08.101Z,99545.91
2022-12-13T05:41:17.397Z,99543.25
2022-12-13T05:44:21.601Z,99550.34
2022-12-13T05:47:24.858Z,99547.22
2022-12-13T05:50:28.453Z,99550.59
2022-12-13T05:53:31.505Z,99551.44
2022-12-13T05:56:34.744Z,99551.41
2022-12-13T05:59:37.883Z,99557.28
2022-12-13T06:02:43.181Z,99559.37
2022-12-13T06:05:46.527Z,99558.59
2022-12-13T06:08:49.655Z,99559.94
2022-12-13T06:12:00.812Z,99563.34
2022-12-13T06:15:21.998Z,99567.63
2022-12-13T06:18:27.466Z,99566.59
2022-12-13T06:21:41.048Z,99559.22
2022-12-13T06:24:47.109Z,99565.28
2022-12-13T06:27:49.818Z,99568.44
2022-12-13T06:30:53.198Z,99573.72
2022-12-13T06:33:56.220Z,99580.88
2022-12-13T06:37:01.257Z,99580.63
2022-12-13T06:40:06.728Z,99569.03
2022-12-13T06:43:10.097Z,99580.09
2022-12-13T06:46:14.647Z,99586.41
2022-12-13T06:49:19.649Z,99591.16
2022-12-13T06:52:25.488Z,99589.53
2022-12-13T06:55:29.107Z,99594.84
2022-12-13T06:58:33.318Z,99590.78
2022-12-13T07:01:37.697Z,99587.06
2022-12-13T07:04:41.018Z,99601.56
2022-12-13T07:07:44.804Z,99595.72
2022-12-13T07:10:48.259Z,99594.66
2022-12-13T07:13:54.205Z,99595.34
2022-12-13T07:17:03.404Z,99602.47
2022-12-13T07:20:08.795Z,99609.31
2022-12-13T07:23:11.950Z,99611.94
2022-12-13T07:26:15.248Z,99620.09
2022-12-13T07:29:22.452Z,99617.41
2022-12-13T07:32:26.391Z,99626.34
2022-12-13T07:35:29.967Z,99628.19
2022-12-13T07:38:37.882Z,99631.28
2022-12-13T07:41:41.014Z,99634.97
2022-12-13T07:44:44.350Z,99623.53
2022-12-13T07:47:47.371Z,99626.66
2022-12-13T07:50:54.728Z,99629.75
2022-12-13T07:53:57.879Z,99627.59
2022-12-13T07:57:04.406Z,99637.06
2022-12-13T08:00:08.589Z,99633.84
2022-12-13T08:03:24.541Z,99636.16
2022-12-13T08:06:28.972Z,99637.66
2022-12-13T08:09:31.833Z,99633.88
2022-12-13T08:12:35.072Z,99635.00
2022-12-13T08:15:37.937Z,99625.84
2022-12-13T08:18:41.328Z,99632.75
2022-12-13T08:22:01.565Z,99631.59
2022-12-13T08:25:06.637Z,99632.28
2022-12-13T08:28:09.566Z,99643.37
2022-12-13T08:31:14.466Z,99651.16
2022-12-13T08:34:17.648Z,99651.44
2022-12-13T08:37:21.144Z,99652.16
2022-12-13T08:40:24.688Z,99655.03
2022-12-13T08:43:27.974Z,99659.03
2022-12-13T08:46:31.049Z,99656.06
2022-12-13T08:49:34.278Z,99661.66
2022-12-13T08:52:40.662Z,99661.50
2022-12-13T08:55:45.764Z,99653.72
2022-12-13T08:58:50.915Z,99657.22
2022-12-13T09:01:58.775Z,99651.19
2022-12-13T09:05:07.951Z,99648.53
2022-12-13T09:08:23.659Z,99654.94
2022-12-13T09:11:34.552Z,99658.56
2022-12-13T09:14:45.669Z,99656.69
2022-12-13T09:17:51.956Z,99656.09
2022-12-13T09:21:10.742Z,99655.84
2022-12-13T09:24:23.777Z,99653.38
2022-12-13T09:27:29.094Z,99649.72
2022-12-13T09:30:32.150Z,99651.19
2022-12-13T09:33:40.815Z,99648.97
2022-12-13T09:36:44.670Z,99640.97
2022-12-13T09:39:47.942Z,99634.53
2022-12-13T09:43:12.578Z,99648.28
2022-12-13T09:46:44.497Z,99638.78
2022-12-13T09:49:52.658Z,99641.53
2022-12-13T09:53:00.436Z,99640.59
2022-12-13T09:56:10.920Z,99641.38
2022-12-13T09:59:14.516Z,99628.37
2022-12-13T10:02:48.047Z,99635.19
2022-12-13T10:05:57.145Z,99629.38
2022-12-13T10:09:00.854Z,99627.97
2022-12-13T10:12:04.297Z,99630.06
2022-12-13T10:15:09.152Z,99631.12
2022-12-13T10:18:15.296Z,99622.88
2022-12-13T10:21:26.740Z,99621.97
2022-12-13T10:24:55.742Z,99629.25
2022-12-13T10:27:58.359Z,99619.94
2022-12-13T10:31:01.679Z,99616.72
2022-12-13T10:34:04.589Z,99612.69
2022-12-13T10:37:29.138Z,99610.94
2022-12-13T10:40:33.364Z,99616.16
2022-12-13T10:43:38.090Z,99610.72
2022-12-13T10:46:42.616Z,99610.31
2022-12-13T10:49:59.029Z,99601.91
2022-12-13T10:53:02.717Z,99588.56
2022-12-13T10:56:06.416Z,99595.16
2022-12-13T10:59:36.666Z,99587.38
2022-12-13T11:02:41.765Z,99587.97
2022-12-13T11:05:46.886Z,99581.50
2022-12-13T11:08:50.088Z,99577.03
2022-12-13T11:11:58.586Z,99578.88
2022-12-13T11:15:05.263Z,99570.25
2022-12-13T11:18:19.276Z,99576.44
2022-12-13T11:21:39.157Z,99574.22
2022-12-13T11:24:42.439Z,99564.72
2022-12-13T11:28:26.688Z,99568.16
2022-12-13T11:31:51.831Z,99562.31
2022-12-13T11:35:16.052Z,99564.72
2022-12-13T11:38:30.746Z,99571.22
2022-12-13T11:41:41.774Z,99559.44
2022-12-13T11:44:48.172Z,99567.31
2022-12-13T11:47:58.949Z,99565.41
2022-12-13T11:51:02.085Z,99557.28
2022-12-13T11:54:13.826Z,99558.53
2022-12-13T11:57:47.068Z,99560.19
2022-12-13T12:00:58.442Z,99563.03
2022-12-13T12:04:07.078Z,99564.63
2022-12-13T12:07:32.988Z,99568.38
2022-12-13T12:10:47.368Z,99573.16
2022-12-13T12:13:57.331Z,99563.22
2022-12-13T12:17:00.886Z,99577.62
2022-12-13T12:20:04.212Z,99570.16
2022-12-13T12:23:29.702Z,99571.78
2022-12-13T12:26:53.178Z,99570.31
2022-12-13T12:30:10.681Z,99562.97
2022-12-13T12:33:33.858Z,99567.66
2022-12-13T12:36:56.082Z,99559.69
2022-12-13T12:41:14.290Z,99552.78
2022-12-13T12:44:34.941Z,99558.87
2022-12-13T12:51:28.363Z,99557.72
2022-12-13T12:54:49.389Z,99545.88
2022-12-13T12:58:08.482Z,99556.16
2022-12-13T13:01:18.610Z,99557.41
2022-12-13T13:04:29.588Z,99559.22
2022-12-13T13:07:39.781Z,99556.12
2022-12-13T13:10:49.699Z,99552.75
2022-12-13T13:14:01.417Z,99555.09
2022-12-13T13:17:25.706Z,99571.06
2022-12-13T13:20:30.598Z,99565.59
2022-12-13T13:23:40.659Z,99565.59
2022-12-13T13:26:50.097Z,99559.63
2022-12-13T13:29:53.669Z,99566.41
2022-12-13T13:32:58.157Z,99570.84
2022-12-13T13:36:03.101Z,99577.25
2022-12-13T13:39:16.594Z,99574.22
2022-12-13T13:42:25.056Z,99579.09
2022-12-13T13:45:28.836Z,99580.28
2022-12-13T13:49:09.632Z,99584.81
2022-12-13T13:52:26.893Z,99575.72
2022-12-13T13:55:33.383Z,99585.50
2022-12-13T13:58:39.030Z,99581.53
2022-12-13T14:02:01.724Z,99569.84
2022-12-13T14:05:25.019Z,99570.47
2022-12-13T14:08:31.062Z,99567.78
2022-12-13T14:12:09.236Z,99562.94
2022-12-13T14:15:39.581Z,99581.84
2022-12-13T14:19:05.917Z,99572.19
2022-12-13T14:22:43.857Z,99578.62
2022-12-13T14:26:05.719Z,99576.53
2022-12-13T14:29:15.620Z,99579.28
2022-12-13T14:32:26.504Z,99576.94
2022-12-13T14:35:33.801Z,99583.09
2022-12-13T14:38:36.968Z,99584.25
2022-12-13T14:41:48.882Z,99573.19
2022-12-13T14:45:26.296Z,99582.28
2022-12-13T14:48:32.926Z,99585.75
2022-12-13T14:51:38.451Z,99572.47
2022-12-13T14:54:50.141Z,99566.94
2022-12-13T14:58:02.904Z,99578.53
2022-12-13T15:01:07.817Z,99570.53
2022-12-13T15:04:35.065Z,99570.50
2022-12-13T15:07:40.345Z,99586.09
2022-12-13T15:10:48.661Z,99582.37
2022-12-13T15:13:52.769Z,99582.91
2022-12-13T15:16:56.996Z,99582.94
2022-12-13T15:20:22.747Z,99593.00
2022-12-13T15:23:40.350Z,99595.19
2022-12-13T15:26:57.258Z,99603.47
2022-12-13T15:30:00.508Z,99604.78
2022-12-13T15:33:04.588Z,99608.47
2022-12-13T15:36:13.636Z,99602.78
2022-12-13T15:39:18.592Z,99615.41
2022-12-13T15:42:30.231Z,99611.81
2022-12-13T15:45:44.902Z,99603.97
2022-12-13T15:48:49.153Z,99603.75
2022-12-13T15:51:57.528Z,99608.50
2022-12-13T15:55:28.452Z,99619.03
2022-12-13T15:58:36.923Z,99620.50
2022-12-13T16:01:40.148Z,99616.06
2022-12-13T16:04:43.594Z,99620.91
2022-12-13T16:07:53.272Z,99624.25
2022-12-13T16:11:00.142Z,99628.19
2022-12-13T16:14:27.263Z,99629.47
2022-12-13T16:17:30.746Z,99631.19
2022-12-13T16:20:34.773Z,99626.47
2022-12-13T16:23:38.184Z,99628.22
2022-12-13T16:26:46.524Z,99623.50
2022-12-13T16:29:51.186Z,99620.44
2022-12-13T16:33:18.110Z,99617.09
2022-12-13T16:36:17.782Z,99619.25
2022-12-13T16:39:21.077Z,99611.34
2022-12-13T16:42:25.880Z,99613.50
2022-12-13T16:45:42.759Z,99608.75
2022-12-13T16:48:46.188Z,99616.53
2022-12-13T16:51:49.535Z,99621.84
2022-12-13T16:54:53.412Z,99618.69
2022-12-13T16:58:04.259Z,99613.16
2022-12-13T17:01:12.550Z,99615.31
2022-12-13T17:04:22.708Z,99605.97
2022-12-13T17:07:27.470Z,99609.22
2022-12-13T17:10:30.938Z,99613.53
2022-12-13T17:13:36.894Z,99617.78
2022-12-13T17:16:41.803Z,99615.13
2022-12-13T17:19:48.940Z,99611.47
2022-12-13T17:22:54.046Z,99610.44
2022-12-13T17:25:58.848Z,99616.06
2022-12-13T17:29:02.611Z,99628.25
2022-12-13T17:32:10.416Z,99627.56
2022-12-13T17:35:18.120Z,99640.25
2022-12-13T17:38:22.378Z,99632.16
2022-12-13T17:41:25.669Z,99629.63
2022-12-13T17:44:31.808Z,99626.56
2022-12-13T17:47:35.387Z,99626.25
2022-12-13T17:50:38.882Z,99619.06
2022-12-13T17:53:43.634Z,99618.59
2022-12-13T17:56:47.874Z,99616.50
2022-12-13T17:59:52.156Z,99610.63
2022-12-13T18:02:56.031Z,99619.59
2022-12-13T18:06:00.158Z,99624.12
2022-12-13T18:09:03.678Z,99622.75
2022-12-13T18:12:09.093Z,99621.16
2022-12-13T18:15:12.996Z,99622.44
2022-12-13T18:18:16.936Z,99633.00
2022-12-13T18:21:20.745Z,99632.84
2022-12-13T18:24:29.378Z,99637.16
2022-12-13T18:27:35.017Z,99638.53
2022-12-13T18:30:39.785Z,99640.97
2022-12-13T18:33:47.409Z,99631.78
2022-12-13T18:36:53.821Z,99631.31
2022-12-13T18:39:58.091Z,99633.41
2022-12-13T18:43:04.629Z,99625.88
2022-12-13T18:46:09.257Z,99631.72
2022-12-13T18:49:14.192Z,99621.88
2022-12-13T18:52:19.108Z,99627.75
2022-12-13T18:55:24.340Z,99621.16
2022-12-13T18:58:28.121Z,99624.03
2022-12-13T19:01:37.101Z,99620.28
2022-12-13T19:04:43.133Z,99611.28
2022-12-13T19:08:04.538Z,99620.28
2022-12-13T19:11:09.433Z,99624.59
2022-12-13T19:14:13.715Z,99628.34
2022-12-13T19:17:20.912Z,99629.38
2022-12-13T19:20:25.533Z,99630.09
2022-12-13T19:23:30.158Z,99638.09
2022-12-13T19:26:39.951Z,99636.84
2022-12-13T19:29:45.025Z,99630.66
2022-12-13T19:32:51.306Z,99634.44
2022-12-13T19:35:56.809Z,99631.94
2022-12-13T19:39:06.259Z,99629.88
2022-12-13T19:42:12.634Z,99629.38
2022-12-13T19:45:25.490Z,99626.75
2022-12-13T19:48:30.854Z,99630.91
2022-12-13T19:51:39.640Z,99630.88
2022-12-13T19:54:44.116Z,99628.69
2022-12-13T19:57:58.823Z,99624.97
2022-12-13T20:01:04.407Z,99620.19
2022-12-13T20:04:09.331Z,99629.69
2022-12-13T20:07:13.978Z,99629.66
2022-12-13T20:10:18.892Z,99635.47
2022-12-13T20:13:23.534Z,99634.38
2022-12-13T20:16:29.005Z,99630.44
2022-12-13T20:19:33.477Z,99629.75
2022-12-13T20:22:39.486Z,99628.50
2022-12-13T20:25:47.003Z,99631.22
2022-12-13T20:28:52.189Z,99638.13
2022-12-13T20:31:57.339Z,99641.09
2022-12-13T20:35:03.482Z,99650.44
2022-12-13T20:38:08.834Z,99639.16
2022-12-13T20:41:15.464Z,99636.06
2022-12-13T20:44:19.285Z,99630.31
2022-12-13T20:47:23.677Z,99632.66
2022-12-13T20:50:29.346Z,99635.56
2022-12-13T20:53:35.349Z,99636.25
2022-12-13T20:56:39.516Z,99631.16
2022-12-13T20:59:44.483Z,99639.81
2022-12-13T21:02:48.349Z,99638.69
2022-12-13T21:05:52.531Z,99628.09
2022-12-13T21:09:00.428Z,99625.50
2022-12-13T21:12:04.599Z,99620.81
2022-12-13T21:15:09.573Z,99614.19
2022-12-13T21:18:14.378Z,99605.50
2022-12-13T21:21:17.735Z,99596.25
2022-12-13T21:24:23.156Z,99599.25
2022-12-13T21:27:27.546Z,99590.00
2022-12-13T21:30:32.513Z,99597.56
2022-12-13T21:33:38.021Z,99592.34
2022-12-13T21:36:56.436Z,99588.81
2022-12-13T21:39:59.166Z,99592.97
2022-12-13T21:43:02.311Z,99596.47
2022-12-13T21:46:14.248Z,99586.50
2022-12-13T21:49:17.645Z,99579.47
2022-12-13T21:52:20.546Z,99584.09
2022-12-13T21:55:38.706Z,99578.69
2022-12-13T21:59:01.946Z,99580.19
2022-12-13T22:02:11.949Z,99580.19
2022-12-13T22:05:15.555Z,99587.94
2022-12-13T22:08:18.534Z,99580.44
2022-12-13T22:11:21.860Z,99577.81
2022-12-13T22:14:26.546Z,99573.59
2022-12-13T22:17:35.275Z,99570.47
2022-12-13T22:20:38.896Z,99576.50
2022-12-13T22:23:42.120Z,99567.31
2022-12-13T22:26:45.325Z,99575.50
2022-12-13T22:29:48.472Z,99574.69
2022-12-13T22:32:52.770Z,99566.37
2022-12-13T22:35:56.839Z,99567.50
2022-12-13T22:39:00.814Z,99567.66
2022-12-13T22:42:04.075Z,99559.22
2022-12-13T22:45:07.522Z,99549.50
2022-12-13T22:48:10.669Z,99539.00
2022-12-13T22:51:17.175Z,99539.81
2022-12-13T22:54:20.326Z,99539.13
2022-12-13T22:57:23.436Z,99541.63
2022-12-13T23:00:26.768Z,99535.44
2022-12-13T23:03:30.403Z,99536.31
2022-12-13T23:06:36.425Z,99528.59
2022-12-13T23:09:39.257Z,99527.59
2022-12-13T23:13:01.973Z,99521.16
2022-12-13T23:16:07.776Z,99518.41
2022-12-13T23:19:40.894Z,99511.38
2022-12-13T23:22:37.766Z,99510.16
2022-12-13T23:25:41.421Z,99517.03
2022-12-13T23:28:45.558Z,99502.81
2022-12-13T23:31:49.074Z,99515.16
2022-12-13T23:34:52.450Z,99508.78
2022-12-13T23:37:56.768Z,99496.53
2022-12-13T23:41:05.480Z,99500.69
2022-12-13T23:44:10.246Z,99507.84
2022-12-13T23:47:13.088Z,99511.50
2022-12-13T23:50:17.682Z,99517.91
2022-12-13T23:53:20.831Z,99508.69
2022-12-13T23:56:24.417Z,99503.94
2022-12-13T23:59:28.303Z,99499.88
